Hlavní strana
METAR-TAF:

METAR-TAF

Letiště :

Kuressaare, Estonsko

zeměpisná šířka: 58-13-48N, zeměpisná délka: 022-30-34E, výška: 4 m

Aktuální stav počasí

Zpráva byla vytvořena před 33 minutami, v 04:50 UTC
Jihojihozápadní vítr 9 kt
Teplota 8°C
Vlhkost vzduchu 87%
Tlak 1037 hPa
Viditelnost 10 km a více
Skoro jasno ve výšce 1000 ft
Zataženo ve výšce 4000 ft

METAR: EEKE 160450Z AUTO 21009KT 9999NDV FEW010 OVC040 08/06 Q1037

Čas: 07:23 (05:23 UTC)

Předpověď počasí

Zpráva byla vytvořena před 14 hodinami a 23 minutami, v 15:00 UTC
Předpověď platná od 15 v 16 UTC do 15 v 22 UTC
Jižní vítr 14 kt s nárazy do 24 kt
Viditelnost 10 km a více
Zataženo ve výšce 2500 ft
Pravděpodobnost 40% :
Dočasný
od 15 v 16 UTC do 15 v 22 UTC
Oblačno až skoro zataženo ve výšce 600 ft
Zataženo ve výšce 1500 ft

TAF: EEKE 151500Z 1516/1522 19014G24KT 9999 OVC025 PROB40 TEMPO 1516/1522 BKN006 OVC015

Stav a předpovědi počasí z více než 4 000 letišť (zprávy METAR a TAF).

Červené a žluté tečky na mapě představují dostupné meteorologické stanice.

Když kurzor umístíte na tečku, zobrazí se název stanice.

Pak kliknutím zobrazíte stav a předpověď počasí.

Chcete-li změnit mapu, kliknutím na zelené tlačítko se znaménkem +mapu přiblížíte, kliknutím na zelené tlačítko se znaménkem – mapu oddálíte a kliknutím na zelené šipky přejdete na sousední mapy.


METAR-TAF: